createdAt,value
2017-09-10T00:00:53.594Z,22.44
2017-09-10T00:02:02.293Z,22.45
2017-09-10T00:03:11.312Z,22.47
2017-09-10T00:04:20.644Z,22.48
2017-09-10T00:05:29.982Z,22.48
2017-09-10T00:06:39.000Z,22.48
2017-09-10T00:07:48.664Z,22.44
2017-09-10T00:08:57.997Z,22.45
2017-09-10T00:10:07.331Z,22.47
2017-09-10T00:11:16.345Z,22.41
2017-09-10T00:12:25.362Z,22.43
2017-09-10T00:13:35.021Z,22.44
2017-09-10T00:14:44.044Z,22.38
2017-09-10T00:15:53.057Z,22.39
2017-09-10T00:17:01.757Z,22.38
2017-09-10T00:18:10.773Z,22.45
2017-09-10T00:19:20.747Z,22.44
2017-09-10T00:20:29.763Z,22.41
2017-09-10T00:21:39.101Z,22.41
2017-09-10T00:22:47.796Z,22.35
2017-09-10T00:23:57.453Z,22.39
2017-09-10T00:25:06.469Z,22.33
2017-09-10T00:26:15.162Z,22.43
2017-09-10T00:27:24.210Z,22.36
2017-09-10T00:28:33.547Z,22.45
2017-09-10T00:29:42.566Z,22.33
2017-09-10T00:30:51.580Z,22.36
2017-09-10T00:32:00.915Z,22.38
2017-09-10T00:33:10.251Z,22.36
2017-09-10T00:34:19.910Z,22.32
2017-09-10T00:35:29.248Z,22.41
2017-09-10T00:36:38.593Z,22.36
2017-09-10T00:37:47.931Z,22.45
2017-09-10T00:38:57.267Z,22.47
2017-09-10T00:40:06.604Z,22.41
2017-09-10T00:41:15.939Z,22.38
2017-09-10T00:42:25.277Z,22.35
2017-09-10T00:43:34.937Z,22.41
2017-09-10T00:44:44.592Z,22.41
2017-09-10T00:45:53.929Z,22.38
2017-09-10T00:47:03.267Z,22.28
2017-09-10T00:48:12.608Z,22.36
2017-09-10T00:49:21.625Z,22.41
2017-09-10T00:50:30.640Z,22.41
2017-09-10T00:51:39.653Z,22.3
2017-09-10T00:52:48.349Z,22.3
2017-09-10T00:53:57.717Z,22.3
2017-09-10T00:55:06.732Z,22.36
2017-09-10T00:56:15.746Z,22.39
2017-09-10T00:57:24.442Z,22.32
2017-09-10T00:58:33.138Z,22.33
2017-09-10T00:59:42.492Z,22.32
2017-09-10T01:00:51.189Z,22.32
2017-09-10T01:02:00.201Z,22.39
2017-09-10T01:03:09.540Z,22.32
2017-09-10T01:04:18.235Z,22.3
2017-09-10T01:05:27.578Z,22.3
2017-09-10T01:06:36.592Z,22.45
2017-09-10T01:07:45.924Z,22.3
2017-09-10T01:08:54.619Z,22.3
2017-09-10T01:10:03.634Z,22.28
2017-09-10T01:11:12.648Z,22.36
2017-09-10T01:12:21.663Z,22.28
2017-09-10T01:13:30.997Z,22.28
2017-09-10T01:14:40.010Z,22.3
2017-09-10T01:15:49.666Z,22.26
2017-09-10T01:16:58.686Z,22.33
2017-09-10T01:18:07.706Z,22.32
2017-09-10T01:19:16.720Z,22.25
2017-09-10T01:20:25.736Z,22.23
2017-09-10T01:21:35.073Z,22.29
2017-09-10T01:22:44.088Z,22.29
2017-09-10T01:23:53.436Z,22.23
2017-09-10T01:25:02.132Z,22.29
2017-09-10T01:26:10.831Z,22.2
2017-09-10T01:27:20.162Z,22.3
2017-09-10T01:28:28.857Z,22.25
2017-09-10T01:29:37.554Z,22.26
2017-09-10T01:30:46.569Z,22.26
2017-09-10T01:31:55.268Z,22.26
2017-09-10T01:33:04.606Z,22.28
2017-09-10T01:34:13.302Z,22.29
2017-09-10T01:35:22.635Z,22.32
2017-09-10T01:36:31.969Z,22.29
2017-09-10T01:37:40.663Z,22.29
2017-09-10T01:38:49.685Z,22.3
2017-09-10T01:39:59.028Z,22.3
2017-09-10T01:41:08.044Z,22.29
2017-09-10T01:42:18.020Z,22.28
2017-09-10T01:43:26.717Z,22.28
2017-09-10T01:44:36.052Z,22.26
2017-09-10T01:45:45.071Z,22.14
2017-09-10T01:46:54.085Z,22.18
2017-09-10T01:48:03.099Z,22.28
2017-09-10T01:49:12.115Z,22.26
2017-09-10T01:50:21.136Z,22.25
2017-09-10T01:51:30.828Z,22.26
2017-09-10T01:52:39.522Z,22.26
2017-09-10T01:53:48.219Z,22.25
2017-09-10T01:54:56.913Z,22.23
2017-09-10T01:56:05.927Z,22.28
2017-09-10T01:57:15.263Z,22.25
2017-09-10T01:58:23.959Z,22.26
2017-09-10T01:59:32.974Z,22.15
2017-09-10T02:00:41.670Z,22.22
2017-09-10T02:01:50.366Z,22.28
2017-09-10T02:02:59.383Z,22.26
2017-09-10T02:04:08.719Z,22.18
2017-09-10T02:05:17.413Z,22.15
2017-09-10T02:06:26.108Z,22.2
2017-09-10T02:07:34.803Z,22.26
2017-09-10T02:08:44.137Z,22.14
2017-09-10T02:09:53.150Z,22.26
2017-09-10T02:11:02.488Z,22.17
2017-09-10T02:12:11.822Z,22.28
2017-09-10T02:13:20.837Z,22.15
2017-09-10T02:14:29.855Z,22.17
2017-09-10T02:15:39.190Z,22.23
2017-09-10T02:16:48.524Z,22.15
2017-09-10T02:17:57.538Z,22.22
2017-09-10T02:19:06.871Z,22.15
2017-09-10T02:20:15.567Z,22.15
2017-09-10T02:21:24.580Z,22.22
2017-09-10T02:22:33.592Z,22.18
2017-09-10T02:23:42.606Z,22.28
2017-09-10T02:24:51.621Z,22.15
2017-09-10T02:26:00.645Z,22.28
2017-09-10T02:27:09.664Z,22.22
2017-09-10T02:28:18.999Z,22.25
2017-09-10T02:29:28.012Z,22.15
2017-09-10T02:30:37.351Z,22.22
2017-09-10T02:31:46.691Z,22.23
2017-09-10T02:32:56.353Z,22.2
2017-09-10T02:34:05.697Z,22.18
2017-09-10T02:35:14.394Z,22.2
2017-09-10T02:36:23.409Z,22.14
2017-09-10T02:37:32.422Z,22.17
2017-09-10T02:38:41.116Z,22.17
2017-09-10T02:39:50.778Z,22.22
2017-09-10T02:41:00.749Z,22.25
2017-09-10T02:42:10.085Z,22.26
2017-09-10T02:43:18.781Z,22.22
2017-09-10T02:44:27.477Z,22.18
2017-09-10T02:45:37.131Z,22.2
2017-09-10T02:46:46.789Z,22.22
2017-09-10T02:47:55.803Z,22.11
2017-09-10T02:49:05.456Z,22.23
2017-09-10T02:50:14.477Z,22.17
2017-09-10T02:51:23.168Z,22.17
2017-09-10T02:52:32.512Z,22.15
2017-09-10T02:53:41.526Z,22.2
2017-09-10T02:54:50.544Z,22.2
2017-09-10T02:55:59.878Z,22.17
2017-09-10T02:57:08.575Z,22.17
2017-09-10T02:58:18.872Z,22.15
2017-09-10T02:59:27.886Z,22.18
2017-09-10T03:00:36.581Z,22.11
2017-09-10T03:01:45.603Z,22.2
2017-09-10T03:02:54.945Z,22.17
2017-09-10T03:04:04.282Z,22.22
2017-09-10T03:05:13.297Z,22.18
2017-09-10T03:06:22.313Z,22.18
2017-09-10T03:07:31.010Z,22.07
2017-09-10T03:08:40.350Z,22.17
2017-09-10T03:09:49.047Z,22.11
2017-09-10T03:10:58.379Z,22.14
2017-09-10T03:12:08.031Z,22.07
2017-09-10T03:13:17.052Z,22.18
2017-09-10T03:14:26.703Z,22.14
2017-09-10T03:15:36.041Z,22.11
2017-09-10T03:16:45.055Z,22.08
2017-09-10T03:17:54.389Z,22.11
2017-09-10T03:19:03.409Z,22.2
2017-09-10T03:20:13.067Z,22.08
2017-09-10T03:21:22.719Z,22.11
2017-09-10T03:22:32.371Z,22.17
2017-09-10T03:23:41.387Z,22.13
2017-09-10T03:24:50.405Z,22.11
2017-09-10T03:26:00.378Z,22.15
2017-09-10T03:27:09.393Z,22.17
2017-09-10T03:28:18.732Z,22.08
2017-09-10T03:29:28.075Z,22.07
2017-09-10T03:30:37.421Z,22.14
2017-09-10T03:31:46.437Z,22.13
2017-09-10T03:32:55.456Z,22.15
2017-09-10T03:34:04.789Z,22.15
2017-09-10T03:35:14.123Z,22.17
2017-09-10T03:36:23.140Z,22.06
2017-09-10T03:37:31.837Z,22.13
2017-09-10T03:38:40.855Z,22.15
2017-09-10T03:39:49.871Z,22.13
2017-09-10T03:40:58.887Z,22.15
2017-09-10T03:42:07.901Z,22.13
2017-09-10T03:43:16.917Z,22.11
2017-09-10T03:44:26.250Z,22.14
2017-09-10T03:45:35.584Z,22.1
2017-09-10T03:46:45.239Z,22.18
2017-09-10T03:47:53.937Z,22.08
2017-09-10T03:49:02.953Z,22.08
2017-09-10T03:50:11.969Z,22.11
2017-09-10T03:51:20.665Z,22.06
2017-09-10T03:52:29.681Z,22.17
2017-09-10T03:53:38.695Z,22.17
2017-09-10T03:54:47.709Z,22.15
2017-09-10T03:55:56.725Z,22.2
2017-09-10T03:57:05.743Z,22.2
2017-09-10T03:58:14.442Z,22.13
2017-09-10T03:59:23.776Z,22.15
2017-09-10T04:00:32.471Z,22.15
2017-09-10T04:01:41.165Z,22.17
2017-09-10T04:02:50.180Z,22.15
2017-09-10T04:03:59.195Z,22.17
2017-09-10T04:05:08.528Z,22.14
2017-09-10T04:06:17.866Z,22.2
2017-09-10T04:07:26.559Z,22.14
2017-09-10T04:08:35.254Z,22.2
2017-09-10T04:09:44.593Z,22.18
2017-09-10T04:10:53.930Z,22.18
2017-09-10T04:12:03.278Z,22.11
2017-09-10T04:13:12.296Z,22.17
2017-09-10T04:14:20.995Z,22.17
2017-09-10T04:15:30.010Z,22.13
2017-09-10T04:16:39.026Z,22.17
2017-09-10T04:17:48.040Z,22.2
2017-09-10T04:18:57.055Z,22.17
2017-09-10T04:20:06.069Z,22.18
2017-09-10T04:21:14.766Z,22.18
2017-09-10T04:22:23.461Z,22.17
2017-09-10T04:23:32.476Z,22.23
2017-09-10T04:24:41.813Z,22.23
2017-09-10T04:25:51.149Z,22.15
2017-09-10T04:26:59.847Z,22.26
2017-09-10T04:28:08.860Z,22.17
2017-09-10T04:29:18.196Z,22.15
2017-09-10T04:30:27.849Z,22.29
2017-09-10T04:31:37.502Z,22.2
2017-09-10T04:32:46.519Z,22.17
2017-09-10T04:33:55.852Z,22.29
2017-09-10T04:35:05.187Z,22.2
2017-09-10T04:36:14.198Z,22.26
2017-09-10T04:37:22.893Z,22.28
2017-09-10T04:38:31.586Z,22.28
2017-09-10T04:39:40.928Z,22.26
2017-09-10T04:40:49.944Z,22.26
2017-09-10T04:41:58.958Z,22.3
2017-09-10T04:43:08.297Z,22.25
2017-09-10T04:44:17.311Z,22.28
2017-09-10T04:45:26.328Z,22.25
2017-09-10T04:46:35.024Z,22.25
2017-09-10T04:47:44.043Z,22.25
2017-09-10T04:48:53.375Z,22.28
2017-09-10T04:50:02.070Z,22.26
2017-09-10T04:51:11.082Z,22.26
2017-09-10T04:52:20.415Z,22.32
2017-09-10T04:53:30.070Z,22.33
2017-09-10T04:54:39.087Z,22.3
2017-09-10T04:55:48.744Z,22.36
2017-09-10T04:56:58.076Z,22.3
2017-09-10T04:58:07.094Z,22.3
2017-09-10T04:59:16.112Z,22.29
2017-09-10T05:00:25.444Z,22.29
2017-09-10T05:01:35.429Z,22.32
2017-09-10T05:02:44.443Z,22.38
2017-09-10T05:03:53.139Z,22.36
2017-09-10T05:05:01.835Z,22.3
2017-09-10T05:06:10.851Z,22.33
2017-09-10T05:07:19.867Z,22.44
2017-09-10T05:08:29.200Z,22.33
2017-09-10T05:09:38.216Z,22.39
2017-09-10T05:10:47.231Z,22.41
2017-09-10T05:11:56.244Z,22.39
2017-09-10T05:13:05.262Z,22.39
2017-09-10T05:14:14.597Z,22.39
2017-09-10T05:15:23.295Z,22.35
2017-09-10T05:16:31.991Z,22.39
2017-09-10T05:17:41.007Z,22.3
2017-09-10T05:18:50.353Z,22.32
2017-09-10T05:19:59.403Z,22.38
2017-09-10T05:21:08.072Z,22.36
2017-09-10T05:22:17.408Z,22.33
2017-09-10T05:23:26.105Z,22.38
2017-09-10T05:24:35.120Z,22.45
2017-09-10T05:25:44.453Z,22.47
2017-09-10T05:26:54.425Z,22.38
2017-09-10T05:28:03.120Z,22.36
2017-09-10T05:29:12.772Z,22.39
2017-09-10T05:30:21.786Z,22.43
2017-09-10T05:31:31.440Z,22.43
2017-09-10T05:32:40.138Z,22.43
2017-09-10T05:33:49.156Z,22.41
2017-09-10T05:34:58.490Z,22.39
2017-09-10T05:36:07.518Z,22.43
2017-09-10T05:37:17.494Z,22.45
2017-09-10T05:38:26.509Z,22.43
2017-09-10T05:39:36.494Z,22.44
2017-09-10T05:40:46.470Z,22.45
2017-09-10T05:41:55.805Z,22.47
2017-09-10T05:43:04.499Z,22.44
2017-09-10T05:44:14.160Z,22.45
2017-09-10T05:45:23.171Z,22.43
2017-09-10T05:46:32.821Z,22.44
2017-09-10T05:47:42.155Z,22.5
2017-09-10T05:48:50.852Z,22.55
2017-09-10T05:49:59.868Z,22.53
2017-09-10T05:51:08.565Z,22.47
2017-09-10T05:52:17.909Z,22.53
2017-09-10T05:53:27.562Z,22.51
2017-09-10T05:54:36.577Z,22.54
2017-09-10T05:55:45.912Z,22.53
2017-09-10T05:56:55.246Z,22.5
2017-09-10T05:58:04.260Z,22.53
2017-09-10T05:59:13.277Z,22.51
2017-09-10T06:00:22.928Z,22.51
2017-09-10T06:01:31.626Z,22.5
2017-09-10T06:02:40.646Z,22.53
2017-09-10T06:03:49.664Z,22.51
2017-09-10T06:04:58.682Z,22.53
2017-09-10T06:06:08.016Z,22.57
2017-09-10T06:07:17.348Z,22.55
2017-09-10T06:08:26.685Z,22.54
2017-09-10T06:09:35.382Z,22.57
2017-09-10T06:10:44.402Z,22.55
2017-09-10T06:11:53.095Z,22.57
2017-09-10T06:13:01.788Z,22.54
2017-09-10T06:14:10.484Z,22.57
2017-09-10T06:15:19.181Z,22.57
2017-09-10T06:16:28.838Z,22.53
2017-09-10T06:17:38.171Z,22.63
2017-09-10T06:18:47.191Z,22.6
2017-09-10T06:19:55.886Z,22.63
2017-09-10T06:21:04.900Z,22.6
2017-09-10T06:22:13.916Z,22.6
2017-09-10T06:23:23.252Z,22.62
2017-09-10T06:24:32.265Z,22.65
2017-09-10T06:25:41.927Z,22.68
2017-09-10T06:26:51.262Z,22.63
2017-09-10T06:28:00.284Z,22.68
2017-09-10T06:29:09.298Z,22.65
2017-09-10T06:30:18.333Z,22.66
2017-09-10T06:31:27.015Z,22.65
2017-09-10T06:32:35.710Z,22.62
2017-09-10T06:33:45.045Z,22.68
2017-09-10T06:34:53.742Z,22.66
2017-09-10T06:36:02.438Z,22.66
2017-09-10T06:37:11.135Z,22.66
2017-09-10T06:38:20.150Z,22.7
2017-09-10T06:39:29.167Z,22.69
2017-09-10T06:40:38.817Z,22.72
2017-09-10T06:41:48.153Z,22.69
2017-09-10T06:42:57.168Z,22.72
2017-09-10T06:44:06.504Z,22.7
2017-09-10T06:45:15.838Z,22.62
2017-09-10T06:46:25.174Z,22.69
2017-09-10T06:47:33.871Z,22.69
2017-09-10T06:48:42.887Z,22.69
2017-09-10T06:49:52.225Z,22.68
2017-09-10T06:51:01.239Z,22.68
2017-09-10T06:52:10.573Z,22.7
2017-09-10T06:53:19.587Z,22.65
2017-09-10T06:54:28.605Z,22.7
2017-09-10T06:55:37.939Z,22.7
2017-09-10T06:56:47.276Z,22.78
2017-09-10T06:57:56.620Z,22.7
2017-09-10T06:59:05.961Z,22.7
2017-09-10T07:00:14.983Z,22.69
2017-09-10T07:01:23.996Z,22.72
2017-09-10T07:02:33.008Z,22.72
2017-09-10T07:03:42.343Z,22.73
2017-09-10T07:04:51.041Z,22.73
2017-09-10T07:06:00.054Z,22.7
2017-09-10T07:07:09.392Z,22.72
2017-09-10T07:08:18.410Z,22.68
2017-09-10T07:09:28.065Z,22.69
2017-09-10T07:10:37.403Z,22.7
2017-09-10T07:11:46.420Z,22.69
2017-09-10T07:12:55.114Z,22.8
2017-09-10T07:14:04.127Z,22.78
2017-09-10T07:15:12.824Z,22.78
2017-09-10T07:16:21.521Z,22.7
2017-09-10T07:17:30.536Z,22.84
2017-09-10T07:18:39.232Z,22.78
2017-09-10T07:19:48.251Z,22.72
2017-09-10T07:20:57.266Z,22.76
2017-09-10T07:22:06.283Z,22.8
2017-09-10T07:23:15.629Z,22.8
2017-09-10T07:24:24.972Z,22.78
2017-09-10T07:25:33.987Z,22.83
2017-09-10T07:26:43.001Z,22.81
2017-09-10T07:27:52.341Z,22.88
2017-09-10T07:29:01.676Z,22.8
2017-09-10T07:30:10.699Z,22.98
2017-09-10T07:31:20.043Z,22.88
2017-09-10T07:32:28.739Z,22.99
2017-09-10T07:33:37.755Z,22.88
2017-09-10T07:34:46.454Z,23
2017-09-10T07:35:55.479Z,23.03
2017-09-10T07:37:04.169Z,23.06
2017-09-10T07:38:13.507Z,23.06
2017-09-10T07:39:22.522Z,23.02
2017-09-10T07:40:31.539Z,23
2017-09-10T07:41:40.235Z,23.06
2017-09-10T07:42:48.930Z,23.02
2017-09-10T07:43:57.634Z,22.96
2017-09-10T07:45:06.967Z,23.05
2017-09-10T07:46:16.303Z,23.13
2017-09-10T07:47:25.317Z,23.12
2017-09-10T07:48:34.653Z,23.18
2017-09-10T07:49:43.671Z,23.15
2017-09-10T07:50:53.006Z,23.17
2017-09-10T07:52:02.024Z,23.2
2017-09-10T07:53:11.362Z,23.13
2017-09-10T07:54:21.339Z,23.1
2017-09-10T07:55:30.039Z,23.13
2017-09-10T07:56:39.066Z,23.2
2017-09-10T07:57:47.761Z,23.08
2017-09-10T07:58:57.097Z,23.09
2017-09-10T08:00:06.116Z,23.2
2017-09-10T08:01:15.486Z,23.17
2017-09-10T08:02:24.500Z,23.13
2017-09-10T08:03:33.195Z,23.09
2017-09-10T08:04:41.893Z,23.03
2017-09-10T08:05:51.239Z,23.06
2017-09-10T08:06:59.935Z,23.03
2017-09-10T08:08:09.285Z,23.12
2017-09-10T08:09:18.302Z,23.09
2017-09-10T08:10:27.318Z,23.18
2017-09-10T08:11:36.648Z,23.15
2017-09-10T08:12:45.664Z,23.13
2017-09-10T08:13:55.000Z,23.09
2017-09-10T08:15:04.343Z,23.2
2017-09-10T08:16:13.675Z,23.21
2017-09-10T08:17:23.331Z,23.24
2017-09-10T08:18:32.667Z,23.25
2017-09-10T08:19:41.685Z,23.23
2017-09-10T08:20:50.700Z,23.25
2017-09-10T08:21:59.714Z,23.27
2017-09-10T08:23:08.730Z,23.46
2017-09-10T08:24:17.430Z,23.69
2017-09-10T08:25:26.766Z,23.73
2017-09-10T08:26:35.783Z,23.71
2017-09-10T08:27:45.438Z,23.69
2017-09-10T08:28:54.457Z,23.71
2017-09-10T08:30:03.476Z,23.76
2017-09-10T08:31:12.493Z,23.65
2017-09-10T08:32:21.192Z,23.71
2017-09-10T08:33:29.893Z,23.83
2017-09-10T08:34:38.910Z,23.77
2017-09-10T08:35:47.925Z,23.68
2017-09-10T08:36:56.939Z,23.77
2017-09-10T08:38:05.957Z,23.78
2017-09-10T08:39:14.974Z,23.74
2017-09-10T08:40:24.308Z,23.71
2017-09-10T08:41:33.005Z,23.81
2017-09-10T08:42:42.662Z,23.8
2017-09-10T08:43:51.358Z,23.81
2017-09-10T08:45:00.693Z,23.81
2017-09-10T08:46:09.717Z,23.71
2017-09-10T08:47:18.735Z,23.76
2017-09-10T08:48:27.750Z,23.73
2017-09-10T08:49:36.800Z,23.76
2017-09-10T08:50:46.422Z,23.68
2017-09-10T08:51:55.451Z,23.73
2017-09-10T08:53:04.793Z,23.69
2017-09-10T08:54:13.806Z,23.73
2017-09-10T08:55:22.502Z,23.76
2017-09-10T08:56:31.838Z,23.71
2017-09-10T08:57:40.850Z,23.68
2017-09-10T08:58:50.835Z,23.73
2017-09-10T08:59:59.849Z,23.77
2017-09-10T09:01:08.865Z,23.74
2017-09-10T09:02:18.201Z,23.73
2017-09-10T09:03:27.219Z,23.74
2017-09-10T09:04:36.555Z,23.69
2017-09-10T09:05:45.569Z,23.69
2017-09-10T09:06:54.902Z,23.77
2017-09-10T09:08:03.919Z,23.78
2017-09-10T09:09:12.932Z,23.83
2017-09-10T09:10:21.950Z,23.91
2017-09-10T09:11:31.287Z,23.92
2017-09-10T09:12:40.304Z,23.96
2017-09-10T09:13:49.317Z,24.11
2017-09-10T09:14:58.336Z,24.18
2017-09-10T09:16:07.671Z,24.23
2017-09-10T09:17:16.689Z,24.33
2017-09-10T09:18:25.388Z,24.47
2017-09-10T09:19:34.408Z,24.53
2017-09-10T09:20:43.748Z,24.66
2017-09-10T09:21:53.098Z,24.61
2017-09-10T09:23:01.798Z,24.7
2017-09-10T09:24:10.816Z,24.73
2017-09-10T09:25:20.156Z,24.76
2017-09-10T09:26:29.175Z,24.92
2017-09-10T09:27:38.225Z,25.01
2017-09-10T09:28:47.566Z,25.17
2017-09-10T09:29:56.590Z,25.18
2017-09-10T09:31:05.936Z,25.22
2017-09-10T09:32:15.276Z,25.18
2017-09-10T09:33:24.616Z,25.03
2017-09-10T09:34:33.954Z,25.04
2017-09-10T09:35:42.654Z,25.03
2017-09-10T09:36:51.356Z,24.96
2017-09-10T09:38:00.376Z,24.89
2017-09-10T09:39:09.079Z,24.89
2017-09-10T09:40:18.099Z,24.99
2017-09-10T09:41:26.800Z,25.03
2017-09-10T09:42:36.141Z,25.01
2017-09-10T09:43:45.486Z,24.99
2017-09-10T09:44:54.825Z,24.89
2017-09-10T09:46:03.524Z,24.89
2017-09-10T09:47:12.860Z,24.88
2017-09-10T09:48:22.516Z,24.78
2017-09-10T09:49:31.536Z,24.81
2017-09-10T09:50:40.234Z,24.88
2017-09-10T09:51:49.253Z,24.91
2017-09-10T09:52:58.272Z,24.96
2017-09-10T09:54:07.611Z,25.07
2017-09-10T09:55:16.630Z,25.33
2017-09-10T09:56:26.315Z,25.51
2017-09-10T09:57:35.655Z,25.55
2017-09-10T09:58:45.313Z,25.98
2017-09-10T09:59:54.651Z,26.77
2017-09-10T10:01:03.985Z,27.71
2017-09-10T10:02:13.007Z,28.23
2017-09-10T10:03:21.710Z,28.64
2017-09-10T10:04:31.374Z,29.23
2017-09-10T10:05:40.718Z,29.78
2017-09-10T10:06:50.390Z,30.23
2017-09-10T10:07:59.729Z,30.1
2017-09-10T10:09:09.082Z,29.68
2017-09-10T10:10:18.104Z,29.42
2017-09-10T10:11:27.167Z,29.34
2017-09-10T10:12:36.513Z,29.88
2017-09-10T10:13:45.863Z,30.35
2017-09-10T10:14:54.883Z,30.69
2017-09-10T10:16:04.231Z,30.96
2017-09-10T10:17:12.935Z,31.22
2017-09-10T10:18:21.639Z,31.03
2017-09-10T10:19:30.345Z,30.57
2017-09-10T10:20:39.691Z,30.06
2017-09-10T10:21:49.351Z,29.51
2017-09-10T10:22:58.381Z,28.98
2017-09-10T10:24:07.404Z,28.69
2017-09-10T10:25:17.070Z,28.54
2017-09-10T10:26:25.771Z,28.42
2017-09-10T10:27:34.792Z,28.38
2017-09-10T10:28:44.460Z,28.54
2017-09-10T10:29:53.479Z,29.23
2017-09-10T10:31:02.498Z,30.15
2017-09-10T10:32:11.200Z,31.18
2017-09-10T10:33:20.217Z,32.04
2017-09-10T10:34:29.563Z,32.86
2017-09-10T10:35:38.905Z,33.55
2017-09-10T10:36:48.570Z,33.92
2017-09-10T10:37:57.593Z,33.71
2017-09-10T10:39:06.618Z,33.47
2017-09-10T10:40:15.645Z,33.65
2017-09-10T10:41:24.673Z,34.16
2017-09-10T10:42:33.378Z,34.55
2017-09-10T10:43:42.085Z,34.93
2017-09-10T10:44:51.431Z,35.18
2017-09-10T10:46:00.774Z,35.71
2017-09-10T10:47:09.804Z,36.18
2017-09-10T10:48:18.838Z,36.54
2017-09-10T10:49:27.543Z,36.79
2017-09-10T10:50:36.570Z,36.51
2017-09-10T10:51:45.909Z,35.67
2017-09-10T10:52:55.254Z,34.86
2017-09-10T10:54:04.594Z,33.94
2017-09-10T10:55:13.621Z,33.27
2017-09-10T10:56:22.643Z,32.53
2017-09-10T10:57:31.347Z,32.12
2017-09-10T10:58:40.049Z,31.73
2017-09-10T10:59:48.752Z,31.33
2017-09-10T11:00:57.452Z,30.97
2017-09-10T11:02:06.792Z,30.53
2017-09-10T11:03:15.814Z,30.13
2017-09-10T11:04:25.154Z,29.78
2017-09-10T11:05:33.854Z,29.5
2017-09-10T11:06:42.872Z,29.23
2017-09-10T11:07:51.890Z,29.02
2017-09-10T11:09:01.232Z,28.89
2017-09-10T11:10:10.255Z,28.86
2017-09-10T11:11:19.278Z,28.76
2017-09-10T11:12:28.622Z,29.23
2017-09-10T11:13:37.646Z,30.25
2017-09-10T11:14:47.313Z,31.37
2017-09-10T11:15:56.968Z,32.49
2017-09-10T11:17:06.306Z,33.4
2017-09-10T11:18:15.011Z,34.29
2017-09-10T11:19:24.034Z,35
2017-09-10T11:20:33.385Z,35.64
2017-09-10T11:21:42.086Z,36.3
2017-09-10T11:22:51.438Z,36.68
2017-09-10T11:24:00.779Z,37.03
2017-09-10T11:25:10.124Z,37.48
2017-09-10T11:26:19.149Z,37.83
2017-09-10T11:27:28.170Z,38.09
2017-09-10T11:28:37.513Z,38.3
2017-09-10T11:29:46.216Z,38.19
2017-09-10T11:30:55.237Z,38.12
2017-09-10T11:32:04.262Z,37.6
2017-09-10T11:33:13.606Z,36.89
2017-09-10T11:34:22.639Z,36.36
2017-09-10T11:35:32.300Z,36.51
2017-09-10T11:36:41.002Z,36.79
2017-09-10T11:37:49.707Z,36.99
2017-09-10T11:38:59.055Z,37.29
2017-09-10T11:40:09.043Z,37.78
2017-09-10T11:41:18.066Z,37.71
2017-09-10T11:42:27.087Z,37.86
2017-09-10T11:43:36.109Z,38.12
2017-09-10T11:44:44.814Z,38.17
2017-09-10T11:45:53.837Z,37.94
2017-09-10T11:47:03.184Z,37.6
2017-09-10T11:48:12.846Z,36.89
2017-09-10T11:49:21.872Z,36.55
2017-09-10T11:50:31.211Z,36.21
2017-09-10T11:51:40.555Z,35.56
2017-09-10T11:52:49.581Z,34.86
2017-09-10T11:53:58.599Z,34.23
2017-09-10T11:55:07.623Z,33.67
2017-09-10T11:56:17.610Z,33.14
2017-09-10T11:57:26.630Z,32.73
2017-09-10T11:58:36.292Z,32.55
2017-09-10T11:59:45.956Z,32.22
2017-09-10T12:00:55.632Z,32.16
2017-09-10T12:02:04.656Z,32.34
2017-09-10T12:03:14.002Z,32.36
2017-09-10T12:04:23.343Z,32.21
2017-09-10T12:05:32.689Z,31.94
2017-09-10T12:06:41.710Z,31.61
2017-09-10T12:07:51.370Z,31.42
2017-09-10T12:09:00.072Z,31.12
2017-09-10T12:10:09.413Z,30.94
2017-09-10T12:11:18.115Z,30.75
2017-09-10T12:12:27.133Z,30.55
2017-09-10T12:13:35.834Z,30.25
2017-09-10T12:14:44.853Z,29.95
2017-09-10T12:15:53.555Z,29.76
2017-09-10T12:17:02.896Z,29.45
2017-09-10T12:18:11.918Z,29.35
2017-09-10T12:19:21.256Z,29.13
2017-09-10T12:20:29.957Z,28.97
2017-09-10T12:21:38.661Z,28.85
2017-09-10T12:22:47.999Z,28.7
2017-09-10T12:23:56.698Z,28.63
2017-09-10T12:25:06.037Z,28.48
2017-09-10T12:26:15.381Z,28.48
2017-09-10T12:27:24.402Z,28.37
2017-09-10T12:28:34.093Z,28.26
2017-09-10T12:29:42.765Z,28.19
2017-09-10T12:30:51.786Z,28.11
2017-09-10T12:32:00.808Z,27.95
2017-09-10T12:33:10.148Z,27.98
2017-09-10T12:34:19.168Z,27.86
2017-09-10T12:35:28.507Z,27.77
2017-09-10T12:36:37.884Z,27.67
2017-09-10T12:37:46.545Z,27.63
2017-09-10T12:38:55.880Z,27.47
2017-09-10T12:40:05.222Z,27.32
2017-09-10T12:41:14.558Z,27.2
2017-09-10T12:42:23.577Z,26.99
2017-09-10T12:43:32.600Z,26.99
2017-09-10T12:44:41.939Z,27
2017-09-10T12:45:50.955Z,26.92
2017-09-10T12:46:59.655Z,26.89
2017-09-10T12:48:08.991Z,26.96
2017-09-10T12:49:18.010Z,26.88
2017-09-10T12:50:27.665Z,26.84
2017-09-10T12:51:36.368Z,26.84
2017-09-10T12:52:46.023Z,26.95
2017-09-10T12:53:55.046Z,26.85
2017-09-10T12:55:04.703Z,26.84
2017-09-10T12:56:13.721Z,26.75
2017-09-10T12:57:22.558Z,26.77
2017-09-10T12:58:31.582Z,26.7
2017-09-10T12:59:40.284Z,26.65
2017-09-10T13:00:48.979Z,26.65
2017-09-10T13:01:57.682Z,26.63
2017-09-10T13:03:06.388Z,26.59
2017-09-10T13:04:15.087Z,26.63
2017-09-10T13:05:23.786Z,26.58
2017-09-10T13:06:32.482Z,26.58
2017-09-10T13:07:42.138Z,26.59
2017-09-10T13:08:51.168Z,26.56
2017-09-10T13:10:00.498Z,26.58
2017-09-10T13:11:09.516Z,26.58
2017-09-10T13:12:18.212Z,26.6
2017-09-10T13:13:27.230Z,26.63
2017-09-10T13:14:36.248Z,26.55
2017-09-10T13:15:45.586Z,26.59
2017-09-10T13:16:54.285Z,26.55
2017-09-10T13:18:02.985Z,26.43
2017-09-10T13:19:12.325Z,26.51
2017-09-10T13:20:21.342Z,26.43
2017-09-10T13:21:30.359Z,26.41
2017-09-10T13:22:39.697Z,26.36
2017-09-10T13:23:49.035Z,26.37
2017-09-10T13:24:58.060Z,26.36
2017-09-10T13:26:07.720Z,26.25
2017-09-10T13:27:16.742Z,26.31
2017-09-10T13:28:26.083Z,26.15
2017-09-10T13:29:35.418Z,26.16
2017-09-10T13:30:44.436Z,26.09
2017-09-10T13:31:53.773Z,26.09
2017-09-10T13:33:02.788Z,26.03
2017-09-10T13:34:12.130Z,25.96
2017-09-10T13:35:21.149Z,25.96
2017-09-10T13:36:30.488Z,25.96
2017-09-10T13:37:39.511Z,26
2017-09-10T13:38:48.535Z,25.96
2017-09-10T13:39:57.232Z,26
2017-09-10T13:41:06.573Z,25.95
2017-09-10T13:42:16.236Z,25.88
2017-09-10T13:43:24.933Z,25.95
2017-09-10T13:44:33.632Z,25.91
2017-09-10T13:45:42.969Z,25.98
2017-09-10T13:46:51.666Z,25.93
2017-09-10T13:48:00.366Z,25.9
2017-09-10T13:49:09.064Z,25.95
2017-09-10T13:50:18.401Z,25.9
2017-09-10T13:51:28.058Z,25.96
2017-09-10T13:52:37.075Z,25.91
2017-09-10T13:53:46.418Z,25.95
2017-09-10T13:54:55.444Z,25.93
2017-09-10T13:56:04.782Z,25.85
2017-09-10T13:57:13.802Z,25.81
2017-09-10T13:58:22.826Z,25.77
2017-09-10T13:59:31.838Z,25.85
2017-09-10T14:00:41.185Z,25.88
2017-09-10T14:01:50.521Z,25.93
2017-09-10T14:02:59.536Z,25.87
2017-09-10T14:04:08.235Z,25.85
2017-09-10T14:05:17.251Z,25.9
2017-09-10T14:06:26.271Z,25.83
2017-09-10T14:07:35.620Z,25.75
2017-09-10T14:08:44.310Z,25.84
2017-09-10T14:09:53.330Z,25.73
2017-09-10T14:11:02.669Z,25.78
2017-09-10T14:12:11.688Z,25.77
2017-09-10T14:13:20.708Z,25.78
2017-09-10T14:14:30.375Z,25.75
2017-09-10T14:15:39.394Z,25.8
2017-09-10T14:16:48.413Z,25.78
2017-09-10T14:17:58.071Z,25.65
2017-09-10T14:19:07.091Z,25.63
2017-09-10T14:20:15.789Z,25.75
2017-09-10T14:21:25.445Z,25.77
2017-09-10T14:22:34.461Z,25.62
2017-09-10T14:23:43.803Z,25.69
2017-09-10T14:24:52.500Z,25.63
2017-09-10T14:26:01.847Z,25.58
2017-09-10T14:27:11.821Z,25.66
2017-09-10T14:28:20.841Z,25.59
2017-09-10T14:29:29.862Z,25.58
2017-09-10T14:30:38.880Z,25.68
2017-09-10T14:31:48.219Z,25.59
2017-09-10T14:32:57.555Z,25.55
2017-09-10T14:34:06.572Z,25.55
2017-09-10T14:35:15.910Z,25.54
2017-09-10T14:36:25.568Z,25.59
2017-09-10T14:37:34.588Z,25.54
2017-09-10T14:38:43.608Z,25.54
2017-09-10T14:39:53.518Z,25.51
2017-09-10T14:41:02.216Z,25.6
2017-09-10T14:42:10.916Z,25.6
2017-09-10T14:43:19.613Z,25.58
2017-09-10T14:44:29.272Z,25.58
2017-09-10T14:45:37.968Z,25.6
2017-09-10T14:46:47.620Z,25.58
2017-09-10T14:47:56.640Z,25.59
2017-09-10T14:49:05.661Z,25.51
2017-09-10T14:50:14.681Z,25.51
2017-09-10T14:51:24.660Z,25.51
2017-09-10T14:52:33.355Z,25.53
2017-09-10T14:53:42.053Z,25.5